sensor_id;sensor_type;location;lat;lon;timestamp;P1;durP1;ratioP1;P2;durP2;ratioP2
18867;SDS011;9563;49.240;9.088;2022-12-08T00:01:33;33.87;;;14.40;;
18867;SDS011;9563;49.240;9.088;2022-12-08T00:04:00;34.53;;;15.10;;
18867;SDS011;9563;49.240;9.088;2022-12-08T00:06:29;38.77;;;15.37;;
18867;SDS011;9563;49.240;9.088;2022-12-08T00:09:16;36.57;;;15.47;;
18867;SDS011;9563;49.240;9.088;2022-12-08T00:11:48;37.50;;;15.03;;
18867;SDS011;9563;49.240;9.088;2022-12-08T00:14:17;34.17;;;14.23;;
18867;SDS011;9563;49.240;9.088;2022-12-08T00:16:44;39.50;;;15.67;;
18867;SDS011;9563;49.240;9.088;2022-12-08T00:19:10;33.83;;;13.77;;
18867;SDS011;9563;49.240;9.088;2022-12-08T00:21:37;42.80;;;15.73;;
18867;SDS011;9563;49.240;9.088;2022-12-08T00:24:04;37.70;;;16.10;;
18867;SDS011;9563;49.240;9.088;2022-12-08T00:26:31;37.30;;;15.63;;
18867;SDS011;9563;49.240;9.088;2022-12-08T00:29:00;38.33;;;14.40;;
18867;SDS011;9563;49.240;9.088;2022-12-08T00:31:26;34.93;;;15.70;;
18867;SDS011;9563;49.240;9.088;2022-12-08T00:33:53;38.70;;;15.80;;
18867;SDS011;9563;49.240;9.088;2022-12-08T00:36:20;41.17;;;16.47;;
18867;SDS011;9563;49.240;9.088;2022-12-08T00:38:47;31.87;;;14.23;;
18867;SDS011;9563;49.240;9.088;2022-12-08T00:41:15;37.53;;;16.03;;
18867;SDS011;9563;49.240;9.088;2022-12-08T00:43:43;38.70;;;16.33;;
18867;SDS011;9563;49.240;9.088;2022-12-08T00:46:11;32.80;;;14.00;;
18867;SDS011;9563;49.240;9.088;2022-12-08T00:48:38;35.97;;;15.37;;
18867;SDS011;9563;49.240;9.088;2022-12-08T00:51:05;39.47;;;16.57;;
18867;SDS011;9563;49.240;9.088;2022-12-08T00:53:32;34.43;;;15.63;;
18867;SDS011;9563;49.240;9.088;2022-12-08T00:55:58;39.90;;;16.23;;
18867;SDS011;9563;49.240;9.088;2022-12-08T00:58:25;33.67;;;14.77;;
18867;SDS011;9563;49.240;9.088;2022-12-08T01:00:52;35.40;;;15.97;;
18867;SDS011;9563;49.240;9.088;2022-12-08T01:03:21;32.97;;;14.40;;
18867;SDS011;9563;49.240;9.088;2022-12-08T01:05:47;40.40;;;15.03;;
18867;SDS011;9563;49.240;9.088;2022-12-08T01:08:14;35.80;;;15.03;;
18867;SDS011;9563;49.240;9.088;2022-12-08T01:10:41;35.30;;;15.50;;
18867;SDS011;9563;49.240;9.088;2022-12-08T01:13:08;37.33;;;14.67;;
18867;SDS011;9563;49.240;9.088;2022-12-08T01:15:35;35.87;;;14.87;;
18867;SDS011;9563;49.240;9.088;2022-12-08T01:18:02;34.47;;;14.03;;
18867;SDS011;9563;49.240;9.088;2022-12-08T01:20:31;32.80;;;13.70;;
18867;SDS011;9563;49.240;9.088;2022-12-08T01:22:58;35.67;;;16.07;;
18867;SDS011;9563;49.240;9.088;2022-12-08T01:25:25;33.50;;;13.87;;
18867;SDS011;9563;49.240;9.088;2022-12-08T01:27:52;37.73;;;15.43;;
18867;SDS011;9563;49.240;9.088;2022-12-08T01:30:19;33.03;;;14.40;;
18867;SDS011;9563;49.240;9.088;2022-12-08T01:32:45;33.80;;;14.57;;
18867;SDS011;9563;49.240;9.088;2022-12-08T01:35:12;34.30;;;15.00;;
18867;SDS011;9563;49.240;9.088;2022-12-08T01:37:41;32.33;;;13.73;;
18867;SDS011;9563;49.240;9.088;2022-12-08T01:40:08;33.53;;;14.53;;
18867;SDS011;9563;49.240;9.088;2022-12-08T01:42:35;30.50;;;13.53;;
18867;SDS011;9563;49.240;9.088;2022-12-08T01:45:04;31.93;;;13.90;;
18867;SDS011;9563;49.240;9.088;2022-12-08T01:47:34;29.53;;;13.67;;
18867;SDS011;9563;49.240;9.088;2022-12-08T01:50:05;32.47;;;13.07;;
18867;SDS011;9563;49.240;9.088;2022-12-08T01:52:36;27.40;;;12.97;;
18867;SDS011;9563;49.240;9.088;2022-12-08T01:55:08;31.43;;;13.07;;
18867;SDS011;9563;49.240;9.088;2022-12-08T01:57:40;37.70;;;13.87;;
18867;SDS011;9563;49.240;9.088;2022-12-08T02:00:11;30.67;;;13.70;;
18867;SDS011;9563;49.240;9.088;2022-12-08T02:02:44;31.97;;;13.57;;
18867;SDS011;9563;49.240;9.088;2022-12-08T02:05:18;30.47;;;14.23;;
18867;SDS011;9563;49.240;9.088;2022-12-08T02:07:48;31.63;;;13.00;;
18867;SDS011;9563;49.240;9.088;2022-12-08T02:10:17;30.50;;;13.77;;
18867;SDS011;9563;49.240;9.088;2022-12-08T02:12:45;31.57;;;13.53;;
18867;SDS011;9563;49.240;9.088;2022-12-08T02:15:13;30.83;;;12.20;;
18867;SDS011;9563;49.240;9.088;2022-12-08T02:17:44;25.63;;;12.00;;
18867;SDS011;9563;49.240;9.088;2022-12-08T02:23:18;29.13;;;11.70;;
18867;SDS011;9563;49.240;9.088;2022-12-08T02:26:05;26.17;;;12.33;;
18867;SDS011;9563;49.240;9.088;2022-12-08T02:28:56;25.17;;;11.10;;
18867;SDS011;9563;49.240;9.088;2022-12-08T02:31:44;27.43;;;12.67;;
18867;SDS011;9563;49.240;9.088;2022-12-08T02:34:24;35.20;;;13.67;;
18867;SDS011;9563;49.240;9.088;2022-12-08T02:36:56;27.50;;;12.10;;
18867;SDS011;9563;49.240;9.088;2022-12-08T02:39:34;25.57;;;12.33;;
18867;SDS011;9563;49.240;9.088;2022-12-08T02:42:07;26.50;;;11.83;;
18867;SDS011;9563;49.240;9.088;2022-12-08T02:44:40;28.00;;;12.87;;
18867;SDS011;9563;49.240;9.088;2022-12-08T02:47:13;28.17;;;12.40;;
18867;SDS011;9563;49.240;9.088;2022-12-08T02:49:43;25.87;;;12.63;;
18867;SDS011;9563;49.240;9.088;2022-12-08T02:55:06;29.80;;;12.87;;
18867;SDS011;9563;49.240;9.088;2022-12-08T02:57:39;28.80;;;11.13;;
18867;SDS011;9563;49.240;9.088;2022-12-08T03:00:14;25.33;;;11.90;;
18867;SDS011;9563;49.240;9.088;2022-12-08T03:02:50;26.60;;;12.20;;
18867;SDS011;9563;49.240;9.088;2022-12-08T03:08:19;28.60;;;13.37;;
18867;SDS011;9563;49.240;9.088;2022-12-08T03:10:51;23.47;;;11.50;;
18867;SDS011;9563;49.240;9.088;2022-12-08T03:13:27;28.33;;;11.83;;
18867;SDS011;9563;49.240;9.088;2022-12-08T03:15:59;23.50;;;11.70;;
18867;SDS011;9563;49.240;9.088;2022-12-08T03:18:28;26.87;;;12.00;;
18867;SDS011;9563;49.240;9.088;2022-12-08T03:20:59;22.23;;;10.70;;
18867;SDS011;9563;49.240;9.088;2022-12-08T03:23:28;21.13;;;10.43;;
18867;SDS011;9563;49.240;9.088;2022-12-08T03:25:57;22.37;;;11.40;;
18867;SDS011;9563;49.240;9.088;2022-12-08T03:28:29;25.87;;;11.87;;
18867;SDS011;9563;49.240;9.088;2022-12-08T03:30:56;27.00;;;10.27;;
18867;SDS011;9563;49.240;9.088;2022-12-08T03:33:29;24.27;;;11.33;;
18867;SDS011;9563;49.240;9.088;2022-12-08T03:36:00;22.67;;;10.23;;
18867;SDS011;9563;49.240;9.088;2022-12-08T03:38:35;19.83;;;9.20;;
18867;SDS011;9563;49.240;9.088;2022-12-08T03:41:04;21.03;;;10.27;;
18867;SDS011;9563;49.240;9.088;2022-12-08T03:43:46;21.70;;;9.93;;
18867;SDS011;9563;49.240;9.088;2022-12-08T03:46:14;22.83;;;9.53;;
18867;SDS011;9563;49.240;9.088;2022-12-08T03:48:41;18.77;;;8.97;;
18867;SDS011;9563;49.240;9.088;2022-12-08T03:51:10;19.13;;;8.80;;
18867;SDS011;9563;49.240;9.088;2022-12-08T03:53:37;20.93;;;8.97;;
18867;SDS011;9563;49.240;9.088;2022-12-08T03:56:05;20.77;;;8.97;;
18867;SDS011;9563;49.240;9.088;2022-12-08T03:58:41;20.73;;;8.97;;
18867;SDS011;9563;49.240;9.088;2022-12-08T04:01:08;16.83;;;8.63;;
18867;SDS011;9563;49.240;9.088;2022-12-08T04:03:36;15.37;;;8.30;;
18867;SDS011;9563;49.240;9.088;2022-12-08T04:06:03;23.23;;;9.13;;
18867;SDS011;9563;49.240;9.088;2022-12-08T04:08:32;19.83;;;9.97;;
18867;SDS011;9563;49.240;9.088;2022-12-08T04:10:59;16.13;;;7.80;;
18867;SDS011;9563;49.240;9.088;2022-12-08T04:13:26;22.57;;;8.63;;
18867;SDS011;9563;49.240;9.088;2022-12-08T04:15:53;20.50;;;8.50;;
18867;SDS011;9563;49.240;9.088;2022-12-08T04:18:20;20.67;;;9.03;;
18867;SDS011;9563;49.240;9.088;2022-12-08T04:20:47;18.47;;;8.77;;
18867;SDS011;9563;49.240;9.088;2022-12-08T04:23:14;20.87;;;9.47;;
18867;SDS011;9563;49.240;9.088;2022-12-08T04:25:42;18.23;;;8.53;;
18867;SDS011;9563;49.240;9.088;2022-12-08T04:28:09;20.47;;;9.30;;
18867;SDS011;9563;49.240;9.088;2022-12-08T04:30:37;20.53;;;8.60;;
18867;SDS011;9563;49.240;9.088;2022-12-08T04:33:04;17.80;;;8.27;;
18867;SDS011;9563;49.240;9.088;2022-12-08T04:35:31;18.00;;;8.37;;
18867;SDS011;9563;49.240;9.088;2022-12-08T04:37:57;21.83;;;8.80;;
18867;SDS011;9563;49.240;9.088;2022-12-08T04:40:24;20.37;;;8.83;;
18867;SDS011;9563;49.240;9.088;2022-12-08T04:42:53;20.87;;;9.83;;
18867;SDS011;9563;49.240;9.088;2022-12-08T04:45:20;19.50;;;8.43;;
18867;SDS011;9563;49.240;9.088;2022-12-08T04:47:47;16.10;;;7.73;;
18867;SDS011;9563;49.240;9.088;2022-12-08T04:50:14;15.90;;;8.23;;
18867;SDS011;9563;49.240;9.088;2022-12-08T04:52:40;19.50;;;8.57;;
18867;SDS011;9563;49.240;9.088;2022-12-08T04:55:07;21.30;;;8.73;;
18867;SDS011;9563;49.240;9.088;2022-12-08T04:57:35;18.90;;;8.77;;
18867;SDS011;9563;49.240;9.088;2022-12-08T05:00:04;16.57;;;8.53;;
18867;SDS011;9563;49.240;9.088;2022-12-08T05:02:32;18.80;;;9.00;;
18867;SDS011;9563;49.240;9.088;2022-12-08T05:04:59;20.53;;;9.10;;
18867;SDS011;9563;49.240;9.088;2022-12-08T05:07:26;24.50;;;9.20;;
18867;SDS011;9563;49.240;9.088;2022-12-08T05:09:53;20.70;;;9.10;;
18867;SDS011;9563;49.240;9.088;2022-12-08T05:12:20;17.93;;;8.53;;
18867;SDS011;9563;49.240;9.088;2022-12-08T05:14:47;18.37;;;8.47;;
18867;SDS011;9563;49.240;9.088;2022-12-08T05:17:15;19.43;;;8.87;;
18867;SDS011;9563;49.240;9.088;2022-12-08T05:19:42;17.07;;;8.10;;
18867;SDS011;9563;49.240;9.088;2022-12-08T05:22:09;19.20;;;7.97;;
18867;SDS011;9563;49.240;9.088;2022-12-08T05:24:36;21.80;;;9.07;;
18867;SDS011;9563;49.240;9.088;2022-12-08T05:27:03;18.37;;;8.93;;
18867;SDS011;9563;49.240;9.088;2022-12-08T05:29:30;16.63;;;8.10;;
18867;SDS011;9563;49.240;9.088;2022-12-08T05:31:57;19.13;;;9.03;;
18867;SDS011;9563;49.240;9.088;2022-12-08T05:34:25;22.47;;;8.67;;
18867;SDS011;9563;49.240;9.088;2022-12-08T05:36:52;15.63;;;8.43;;
18867;SDS011;9563;49.240;9.088;2022-12-08T05:39:19;19.83;;;8.80;;
18867;SDS011;9563;49.240;9.088;2022-12-08T05:41:46;17.53;;;8.10;;
18867;SDS011;9563;49.240;9.088;2022-12-08T05:44:12;19.90;;;8.70;;
18867;SDS011;9563;49.240;9.088;2022-12-08T05:46:39;18.80;;;8.23;;
18867;SDS011;9563;49.240;9.088;2022-12-08T05:49:06;17.73;;;8.03;;
18867;SDS011;9563;49.240;9.088;2022-12-08T05:51:35;17.90;;;8.97;;
18867;SDS011;9563;49.240;9.088;2022-12-08T05:54:02;21.03;;;8.77;;
18867;SDS011;9563;49.240;9.088;2022-12-08T05:56:29;17.80;;;8.43;;
18867;SDS011;9563;49.240;9.088;2022-12-08T05:58:56;15.13;;;7.90;;
18867;SDS011;9563;49.240;9.088;2022-12-08T06:01:24;18.93;;;7.83;;
18867;SDS011;9563;49.240;9.088;2022-12-08T06:03:53;21.93;;;9.47;;
18867;SDS011;9563;49.240;9.088;2022-12-08T06:06:20;18.70;;;8.57;;
18867;SDS011;9563;49.240;9.088;2022-12-08T06:08:49;15.43;;;8.07;;
18867;SDS011;9563;49.240;9.088;2022-12-08T06:11:17;16.90;;;8.10;;
18867;SDS011;9563;49.240;9.088;2022-12-08T06:13:44;17.53;;;8.00;;
18867;SDS011;9563;49.240;9.088;2022-12-08T06:16:11;17.40;;;8.00;;
18867;SDS011;9563;49.240;9.088;2022-12-08T06:18:38;15.53;;;7.97;;
18867;SDS011;9563;49.240;9.088;2022-12-08T06:21:06;19.43;;;8.93;;
18867;SDS011;9563;49.240;9.088;2022-12-08T06:23:34;18.90;;;8.13;;
18867;SDS011;9563;49.240;9.088;2022-12-08T06:26:03;19.60;;;8.53;;
18867;SDS011;9563;49.240;9.088;2022-12-08T06:28:32;20.00;;;7.97;;
18867;SDS011;9563;49.240;9.088;2022-12-08T06:30:59;19.77;;;9.03;;
18867;SDS011;9563;49.240;9.088;2022-12-08T06:33:32;20.63;;;9.43;;
18867;SDS011;9563;49.240;9.088;2022-12-08T06:35:59;16.53;;;7.57;;
18867;SDS011;9563;49.240;9.088;2022-12-08T06:38:26;22.30;;;9.83;;
18867;SDS011;9563;49.240;9.088;2022-12-08T06:40:53;16.13;;;7.97;;
18867;SDS011;9563;49.240;9.088;2022-12-08T06:43:22;21.47;;;7.97;;
18867;SDS011;9563;49.240;9.088;2022-12-08T06:45:49;21.37;;;8.67;;
18867;SDS011;9563;49.240;9.088;2022-12-08T06:48:17;19.80;;;8.90;;
18867;SDS011;9563;49.240;9.088;2022-12-08T06:50:44;18.00;;;9.33;;
18867;SDS011;9563;49.240;9.088;2022-12-08T06:53:11;23.03;;;9.40;;
18867;SDS011;9563;49.240;9.088;2022-12-08T06:55:41;23.13;;;9.50;;
18867;SDS011;9563;49.240;9.088;2022-12-08T06:58:09;20.53;;;9.00;;
18867;SDS011;9563;49.240;9.088;2022-12-08T07:00:38;17.90;;;8.83;;
18867;SDS011;9563;49.240;9.088;2022-12-08T07:03:05;18.23;;;8.83;;
18867;SDS011;9563;49.240;9.088;2022-12-08T07:05:33;23.43;;;8.00;;
18867;SDS011;9563;49.240;9.088;2022-12-08T07:08:00;24.77;;;9.17;;
18867;SDS011;9563;49.240;9.088;2022-12-08T07:10:27;18.83;;;7.60;;
18867;SDS011;9563;49.240;9.088;2022-12-08T07:12:54;21.53;;;8.67;;
18867;SDS011;9563;49.240;9.088;2022-12-08T07:15:21;15.00;;;7.23;;
18867;SDS011;9563;49.240;9.088;2022-12-08T07:17:49;19.87;;;8.83;;
18867;SDS011;9563;49.240;9.088;2022-12-08T07:20:17;16.47;;;7.70;;
18867;SDS011;9563;49.240;9.088;2022-12-08T07:22:47;19.90;;;8.17;;
18867;SDS011;9563;49.240;9.088;2022-12-08T07:25:15;18.20;;;8.37;;
18867;SDS011;9563;49.240;9.088;2022-12-08T07:27:42;22.50;;;8.60;;
18867;SDS011;9563;49.240;9.088;2022-12-08T07:30:09;19.83;;;8.80;;
18867;SDS011;9563;49.240;9.088;2022-12-08T07:32:36;29.33;;;10.03;;
18867;SDS011;9563;49.240;9.088;2022-12-08T07:35:06;20.73;;;8.93;;
18867;SDS011;9563;49.240;9.088;2022-12-08T07:37:34;19.47;;;8.63;;
18867;SDS011;9563;49.240;9.088;2022-12-08T07:40:02;20.63;;;8.70;;
18867;SDS011;9563;49.240;9.088;2022-12-08T07:42:29;21.70;;;9.80;;
18867;SDS011;9563;49.240;9.088;2022-12-08T07:44:57;32.40;;;11.20;;
18867;SDS011;9563;49.240;9.088;2022-12-08T07:47:23;26.30;;;10.13;;
18867;SDS011;9563;49.240;9.088;2022-12-08T07:49:50;31.90;;;11.80;;
18867;SDS011;9563;49.240;9.088;2022-12-08T07:52:19;22.93;;;10.13;;
18867;SDS011;9563;49.240;9.088;2022-12-08T07:54:46;20.00;;;9.73;;
18867;SDS011;9563;49.240;9.088;2022-12-08T07:57:12;26.00;;;10.17;;
18867;SDS011;9563;49.240;9.088;2022-12-08T07:59:40;27.07;;;11.10;;
18867;SDS011;9563;49.240;9.088;2022-12-08T08:02:10;21.63;;;10.33;;
18867;SDS011;9563;49.240;9.088;2022-12-08T08:04:41;24.77;;;11.13;;
18867;SDS011;9563;49.240;9.088;2022-12-08T08:07:08;23.30;;;11.23;;
18867;SDS011;9563;49.240;9.088;2022-12-08T08:09:37;26.33;;;10.40;;
18867;SDS011;9563;49.240;9.088;2022-12-08T08:12:04;23.33;;;10.30;;
18867;SDS011;9563;49.240;9.088;2022-12-08T08:14:32;23.60;;;10.23;;
18867;SDS011;9563;49.240;9.088;2022-12-08T08:16:59;23.37;;;10.23;;
18867;SDS011;9563;49.240;9.088;2022-12-08T08:19:26;27.67;;;10.53;;
18867;SDS011;9563;49.240;9.088;2022-12-08T08:21:53;23.73;;;10.70;;
18867;SDS011;9563;49.240;9.088;2022-12-08T08:24:23;23.47;;;10.50;;
18867;SDS011;9563;49.240;9.088;2022-12-08T08:26:51;25.27;;;10.33;;
18867;SDS011;9563;49.240;9.088;2022-12-08T08:29:19;23.53;;;10.70;;
18867;SDS011;9563;49.240;9.088;2022-12-08T08:31:47;25.73;;;11.63;;
18867;SDS011;9563;49.240;9.088;2022-12-08T08:34:14;21.97;;;10.30;;
18867;SDS011;9563;49.240;9.088;2022-12-08T08:36:41;24.27;;;10.57;;
18867;SDS011;9563;49.240;9.088;2022-12-08T08:39:07;25.43;;;11.07;;
18867;SDS011;9563;49.240;9.088;2022-12-08T08:41:35;24.63;;;11.07;;
18867;SDS011;9563;49.240;9.088;2022-12-08T08:44:04;21.87;;;10.17;;
18867;SDS011;9563;49.240;9.088;2022-12-08T08:46:31;23.20;;;11.33;;
18867;SDS011;9563;49.240;9.088;2022-12-08T08:48:58;21.77;;;10.83;;
18867;SDS011;9563;49.240;9.088;2022-12-08T08:51:25;25.97;;;10.53;;
18867;SDS011;9563;49.240;9.088;2022-12-08T08:53:53;23.60;;;9.97;;
18867;SDS011;9563;49.240;9.088;2022-12-08T08:56:20;26.27;;;10.70;;
18867;SDS011;9563;49.240;9.088;2022-12-08T08:58:48;23.03;;;10.27;;
18867;SDS011;9563;49.240;9.088;2022-12-08T09:01:17;27.50;;;10.77;;
18867;SDS011;9563;49.240;9.088;2022-12-08T09:03:47;21.73;;;10.70;;
18867;SDS011;9563;49.240;9.088;2022-12-08T09:06:14;24.63;;;10.97;;
18867;SDS011;9563;49.240;9.088;2022-12-08T09:08:43;25.50;;;11.30;;
18867;SDS011;9563;49.240;9.088;2022-12-08T09:11:10;22.43;;;11.13;;
18867;SDS011;9563;49.240;9.088;2022-12-08T09:13:38;22.43;;;11.13;;
18867;SDS011;9563;49.240;9.088;2022-12-08T09:16:06;32.23;;;14.57;;
18867;SDS011;9563;49.240;9.088;2022-12-08T09:18:35;23.90;;;12.13;;
18867;SDS011;9563;49.240;9.088;2022-12-08T09:21:02;25.93;;;10.57;;
18867;SDS011;9563;49.240;9.088;2022-12-08T09:23:30;22.17;;;9.87;;
18867;SDS011;9563;49.240;9.088;2022-12-08T09:25:57;26.17;;;9.80;;
18867;SDS011;9563;49.240;9.088;2022-12-08T09:28:24;24.07;;;10.17;;
18867;SDS011;9563;49.240;9.088;2022-12-08T09:30:52;24.80;;;11.17;;
18867;SDS011;9563;49.240;9.088;2022-12-08T09:33:19;24.03;;;11.60;;
18867;SDS011;9563;49.240;9.088;2022-12-08T09:35:47;22.67;;;9.97;;
18867;SDS011;9563;49.240;9.088;2022-12-08T09:38:14;23.57;;;11.07;;
18867;SDS011;9563;49.240;9.088;2022-12-08T09:40:42;26.17;;;11.43;;
18867;SDS011;9563;49.240;9.088;2022-12-08T09:43:20;22.43;;;11.07;;
18867;SDS011;9563;49.240;9.088;2022-12-08T09:45:59;23.40;;;10.50;;
18867;SDS011;9563;49.240;9.088;2022-12-08T09:48:32;23.90;;;10.37;;
18867;SDS011;9563;49.240;9.088;2022-12-08T09:51:02;23.90;;;10.17;;
18867;SDS011;9563;49.240;9.088;2022-12-08T09:53:33;24.80;;;10.40;;
18867;SDS011;9563;49.240;9.088;2022-12-08T09:56:02;22.23;;;10.23;;
18867;SDS011;9563;49.240;9.088;2022-12-08T09:58:36;27.17;;;12.03;;
18867;SDS011;9563;49.240;9.088;2022-12-08T10:01:11;22.10;;;10.57;;
18867;SDS011;9563;49.240;9.088;2022-12-08T10:03:39;26.60;;;10.43;;
18867;SDS011;9563;49.240;9.088;2022-12-08T10:06:11;24.57;;;10.40;;
18867;SDS011;9563;49.240;9.088;2022-12-08T10:08:47;29.63;;;11.77;;
18867;SDS011;9563;49.240;9.088;2022-12-08T10:11:22;34.17;;;17.60;;
18867;SDS011;9563;49.240;9.088;2022-12-08T10:13:57;22.97;;;9.60;;
18867;SDS011;9563;49.240;9.088;2022-12-08T10:16:37;23.77;;;10.97;;
18867;SDS011;9563;49.240;9.088;2022-12-08T10:19:10;20.73;;;10.30;;
18867;SDS011;9563;49.240;9.088;2022-12-08T10:21:43;21.27;;;9.67;;
18867;SDS011;9563;49.240;9.088;2022-12-08T10:24:11;24.37;;;10.13;;
18867;SDS011;9563;49.240;9.088;2022-12-08T10:26:44;20.40;;;9.60;;
18867;SDS011;9563;49.240;9.088;2022-12-08T10:29:12;19.93;;;9.93;;
18867;SDS011;9563;49.240;9.088;2022-12-08T10:31:40;21.20;;;10.17;;
18867;SDS011;9563;49.240;9.088;2022-12-08T10:34:14;19.50;;;9.03;;
18867;SDS011;9563;49.240;9.088;2022-12-08T10:36:46;20.67;;;9.47;;
18867;SDS011;9563;49.240;9.088;2022-12-08T10:39:31;19.83;;;10.30;;
18867;SDS011;9563;49.240;9.088;2022-12-08T10:42:00;21.90;;;9.87;;
18867;SDS011;9563;49.240;9.088;2022-12-08T10:44:31;19.47;;;10.10;;
18867;SDS011;9563;49.240;9.088;2022-12-08T10:46:58;17.67;;;8.93;;
18867;SDS011;9563;49.240;9.088;2022-12-08T10:49:36;15.63;;;8.30;;
18867;SDS011;9563;49.240;9.088;2022-12-08T10:52:07;18.30;;;8.87;;
18867;SDS011;9563;49.240;9.088;2022-12-08T10:54:48;14.37;;;7.90;;
18867;SDS011;9563;49.240;9.088;2022-12-08T10:57:20;18.03;;;8.33;;
18867;SDS011;9563;49.240;9.088;2022-12-08T10:59:49;17.27;;;7.80;;
18867;SDS011;9563;49.240;9.088;2022-12-08T11:02:21;20.30;;;9.10;;
18867;SDS011;9563;49.240;9.088;2022-12-08T11:04:53;19.80;;;8.80;;
18867;SDS011;9563;49.240;9.088;2022-12-08T11:07:26;15.37;;;7.77;;
18867;SDS011;9563;49.240;9.088;2022-12-08T11:09:53;19.00;;;9.23;;
18867;SDS011;9563;49.240;9.088;2022-12-08T11:12:25;17.07;;;7.90;;
18867;SDS011;9563;49.240;9.088;2022-12-08T11:14:56;22.70;;;9.10;;
18867;SDS011;9563;49.240;9.088;2022-12-08T11:17:27;14.30;;;6.87;;
18867;SDS011;9563;49.240;9.088;2022-12-08T11:20:03;15.40;;;8.00;;
18867;SDS011;9563;49.240;9.088;2022-12-08T11:22:49;14.93;;;6.70;;
18867;SDS011;9563;49.240;9.088;2022-12-08T11:25:19;14.37;;;5.60;;
18867;SDS011;9563;49.240;9.088;2022-12-08T11:27:49;13.70;;;5.80;;
18867;SDS011;9563;49.240;9.088;2022-12-08T11:30:18;14.93;;;6.07;;
18867;SDS011;9563;49.240;9.088;2022-12-08T11:32:47;13.07;;;5.43;;
18867;SDS011;9563;49.240;9.088;2022-12-08T11:35:20;14.57;;;6.87;;
18867;SDS011;9563;49.240;9.088;2022-12-08T11:37:52;16.07;;;6.67;;
18867;SDS011;9563;49.240;9.088;2022-12-08T11:40:23;12.03;;;6.73;;
18867;SDS011;9563;49.240;9.088;2022-12-08T11:42:56;15.10;;;6.07;;
18867;SDS011;9563;49.240;9.088;2022-12-08T11:45:32;18.67;;;6.83;;
18867;SDS011;9563;49.240;9.088;2022-12-08T11:48:04;12.57;;;6.17;;
18867;SDS011;9563;49.240;9.088;2022-12-08T11:50:39;14.63;;;6.33;;
18867;SDS011;9563;49.240;9.088;2022-12-08T11:55:49;15.03;;;6.27;;
18867;SDS011;9563;49.240;9.088;2022-12-08T11:58:21;16.13;;;6.73;;
18867;SDS011;9563;49.240;9.088;2022-12-08T12:00:53;13.57;;;6.90;;
18867;SDS011;9563;49.240;9.088;2022-12-08T12:03:23;13.80;;;5.80;;
18867;SDS011;9563;49.240;9.088;2022-12-08T12:05:58;14.37;;;6.90;;
18867;SDS011;9563;49.240;9.088;2022-12-08T12:08:51;14.43;;;6.50;;
18867;SDS011;9563;49.240;9.088;2022-12-08T12:11:27;16.67;;;7.47;;
18867;SDS011;9563;49.240;9.088;2022-12-08T12:14:24;17.53;;;7.10;;
18867;SDS011;9563;49.240;9.088;2022-12-08T12:17:06;16.30;;;7.23;;
18867;SDS011;9563;49.240;9.088;2022-12-08T12:19:50;14.17;;;6.70;;
18867;SDS011;9563;49.240;9.088;2022-12-08T12:22:19;16.73;;;6.60;;
18867;SDS011;9563;49.240;9.088;2022-12-08T12:24:50;18.37;;;6.83;;
18867;SDS011;9563;49.240;9.088;2022-12-08T12:27:22;17.03;;;6.80;;
18867;SDS011;9563;49.240;9.088;2022-12-08T12:29:54;16.37;;;7.47;;
18867;SDS011;9563;49.240;9.088;2022-12-08T12:32:24;30.20;;;14.73;;
18867;SDS011;9563;49.240;9.088;2022-12-08T12:34:53;20.30;;;8.97;;
18867;SDS011;9563;49.240;9.088;2022-12-08T12:37:22;17.40;;;7.73;;
18867;SDS011;9563;49.240;9.088;2022-12-08T12:39:54;18.90;;;8.50;;
18867;SDS011;9563;49.240;9.088;2022-12-08T12:42:36;18.40;;;8.80;;
18867;SDS011;9563;49.240;9.088;2022-12-08T12:45:25;19.03;;;8.77;;
18867;SDS011;9563;49.240;9.088;2022-12-08T12:50:55;18.07;;;8.73;;
18867;SDS011;9563;49.240;9.088;2022-12-08T12:59:34;18.07;;;7.93;;
18867;SDS011;9563;49.240;9.088;2022-12-08T13:02:13;16.00;;;7.77;;
18867;SDS011;9563;49.240;9.088;2022-12-08T13:04:44;13.93;;;7.30;;
18867;SDS011;9563;49.240;9.088;2022-12-08T13:07:20;18.77;;;7.70;;
18867;SDS011;9563;49.240;9.088;2022-12-08T13:09:52;16.77;;;6.90;;
18867;SDS011;9563;49.240;9.088;2022-12-08T13:12:26;16.47;;;7.13;;
18867;SDS011;9563;49.240;9.088;2022-12-08T13:14:55;15.83;;;7.10;;
18867;SDS011;9563;49.240;9.088;2022-12-08T13:17:28;15.80;;;6.60;;
18867;SDS011;9563;49.240;9.088;2022-12-08T13:19:58;16.20;;;7.37;;
18867;SDS011;9563;49.240;9.088;2022-12-08T13:28:17;16.77;;;7.40;;
18867;SDS011;9563;49.240;9.088;2022-12-08T13:30:47;21.37;;;7.07;;
18867;SDS011;9563;49.240;9.088;2022-12-08T13:33:15;13.17;;;7.10;;
18867;SDS011;9563;49.240;9.088;2022-12-08T13:35:49;14.40;;;7.60;;
18867;SDS011;9563;49.240;9.088;2022-12-08T13:38:38;19.10;;;7.10;;
18867;SDS011;9563;49.240;9.088;2022-12-08T13:41:06;19.67;;;6.87;;
18867;SDS011;9563;49.240;9.088;2022-12-08T13:43:43;13.80;;;6.23;;
18867;SDS011;9563;49.240;9.088;2022-12-08T13:46:13;12.57;;;5.97;;
18867;SDS011;9563;49.240;9.088;2022-12-08T13:48:47;13.60;;;6.17;;
18867;SDS011;9563;49.240;9.088;2022-12-08T13:51:18;16.90;;;6.97;;
18867;SDS011;9563;49.240;9.088;2022-12-08T13:53:52;14.70;;;6.93;;
18867;SDS011;9563;49.240;9.088;2022-12-08T13:56:25;16.10;;;6.90;;
18867;SDS011;9563;49.240;9.088;2022-12-08T13:59:06;16.47;;;6.93;;
18867;SDS011;9563;49.240;9.088;2022-12-08T14:01:52;19.00;;;7.43;;
18867;SDS011;9563;49.240;9.088;2022-12-08T14:04:21;17.60;;;6.90;;
18867;SDS011;9563;49.240;9.088;2022-12-08T14:06:50;14.93;;;7.20;;
18867;SDS011;9563;49.240;9.088;2022-12-08T14:09:21;15.33;;;7.13;;
18867;SDS011;9563;49.240;9.088;2022-12-08T14:11:51;18.20;;;7.67;;
18867;SDS011;9563;49.240;9.088;2022-12-08T14:14:25;19.07;;;8.30;;
18867;SDS011;9563;49.240;9.088;2022-12-08T14:16:55;15.20;;;7.10;;
18867;SDS011;9563;49.240;9.088;2022-12-08T14:19:23;12.87;;;7.00;;
18867;SDS011;9563;49.240;9.088;2022-12-08T14:21:54;17.90;;;7.30;;
18867;SDS011;9563;49.240;9.088;2022-12-08T14:24:23;14.47;;;7.27;;
18867;SDS011;9563;49.240;9.088;2022-12-08T14:26:51;23.17;;;7.33;;
18867;SDS011;9563;49.240;9.088;2022-12-08T14:32:05;20.37;;;8.30;;
18867;SDS011;9563;49.240;9.088;2022-12-08T14:34:52;21.23;;;8.10;;
18867;SDS011;9563;49.240;9.088;2022-12-08T14:37:21;17.37;;;8.53;;
18867;SDS011;9563;49.240;9.088;2022-12-08T14:39:50;21.40;;;8.93;;
18867;SDS011;9563;49.240;9.088;2022-12-08T14:42:20;22.40;;;8.67;;
18867;SDS011;9563;49.240;9.088;2022-12-08T14:47:36;19.37;;;8.77;;
18867;SDS011;9563;49.240;9.088;2022-12-08T14:50:04;22.87;;;9.50;;
18867;SDS011;9563;49.240;9.088;2022-12-08T14:53:08;18.10;;;8.13;;
18867;SDS011;9563;49.240;9.088;2022-12-08T14:55:39;18.73;;;8.50;;
18867;SDS011;9563;49.240;9.088;2022-12-08T14:58:14;17.87;;;8.90;;
18867;SDS011;9563;49.240;9.088;2022-12-08T15:00:45;18.27;;;8.33;;
18867;SDS011;9563;49.240;9.088;2022-12-08T15:03:15;19.60;;;8.63;;
18867;SDS011;9563;49.240;9.088;2022-12-08T15:05:43;18.97;;;8.73;;
18867;SDS011;9563;49.240;9.088;2022-12-08T15:08:11;20.73;;;9.47;;
18867;SDS011;9563;49.240;9.088;2022-12-08T15:10:38;19.33;;;8.70;;
18867;SDS011;9563;49.240;9.088;2022-12-08T15:13:19;23.77;;;9.27;;
18867;SDS011;9563;49.240;9.088;2022-12-08T15:15:49;23.87;;;10.27;;
18867;SDS011;9563;49.240;9.088;2022-12-08T15:18:17;23.23;;;9.97;;
18867;SDS011;9563;49.240;9.088;2022-12-08T15:20:47;22.53;;;9.03;;
18867;SDS011;9563;49.240;9.088;2022-12-08T15:23:18;21.60;;;10.37;;
18867;SDS011;9563;49.240;9.088;2022-12-08T15:25:54;18.60;;;8.87;;
18867;SDS011;9563;49.240;9.088;2022-12-08T15:28:23;22.77;;;10.23;;
18867;SDS011;9563;49.240;9.088;2022-12-08T15:30:53;20.93;;;9.53;;
18867;SDS011;9563;49.240;9.088;2022-12-08T15:33:20;20.73;;;9.70;;